createdAt,value
2018-11-21T00:00:03.608Z,12.07
2018-11-21T00:02:33.193Z,11.63
2018-11-21T00:05:02.828Z,11.77
2018-11-21T00:07:35.865Z,11.23
2018-11-21T00:10:07.631Z,11.70
2018-11-21T00:12:37.722Z,11.27
2018-11-21T00:15:09.832Z,12.47
2018-11-21T00:17:39.455Z,13.00
2018-11-21T00:20:11.190Z,11.80
2018-11-21T00:22:40.783Z,12.33
2018-11-21T00:25:10.711Z,12.27
2018-11-21T00:27:40.487Z,12.47
2018-11-21T00:30:13.209Z,12.70
2018-11-21T00:32:42.784Z,12.73
2018-11-21T00:35:12.860Z,13.37
2018-11-21T00:37:42.448Z,12.20
2018-11-21T00:40:13.990Z,12.93
2018-11-21T00:43:02.214Z,13.73
2018-11-21T00:45:31.865Z,12.93
2018-11-21T00:48:01.493Z,13.47
2018-11-21T00:50:50.493Z,12.83
2018-11-21T00:53:20.448Z,13.90
2018-11-21T00:55:50.052Z,13.07
2018-11-21T00:58:19.723Z,13.00
2018-11-21T01:00:49.307Z,13.73
2018-11-21T01:03:18.942Z,13.80
2018-11-21T01:05:48.547Z,13.27
2018-11-21T01:08:18.193Z,13.37
2018-11-21T01:10:47.811Z,13.00
2018-11-21T01:13:17.501Z,13.40
2018-11-21T01:15:47.106Z,13.07
2018-11-21T01:20:52.049Z,13.00
2018-11-21T01:23:21.684Z,13.37
2018-11-21T01:25:51.259Z,13.07
2018-11-21T01:28:20.845Z,13.20
2018-11-21T01:30:50.478Z,12.67
2018-11-21T01:33:20.051Z,13.57
2018-11-21T01:35:49.763Z,12.70
2018-11-21T01:38:19.710Z,13.27
2018-11-21T01:40:49.445Z,13.63
2018-11-21T01:43:19.442Z,12.83
2018-11-21T01:45:50.277Z,12.83
2018-11-21T01:48:19.910Z,13.63
2018-11-21T01:50:49.520Z,13.47
2018-11-21T01:53:37.780Z,12.80
2018-11-21T01:56:07.437Z,13.50
2018-11-21T01:58:37.011Z,12.27
2018-11-21T02:01:07.672Z,13.63
2018-11-21T02:03:37.766Z,13.67
2018-11-21T02:06:08.051Z,12.77
2018-11-21T02:08:38.040Z,14.27
2018-11-21T02:11:07.682Z,14.13
2018-11-21T02:13:37.277Z,13.67
2018-11-21T02:16:07.586Z,13.30
2018-11-21T02:18:37.215Z,15.60
2018-11-21T02:21:06.908Z,14.33
2018-11-21T02:23:36.517Z,13.90
2018-11-21T02:26:06.555Z,14.10
2018-11-21T02:28:36.167Z,14.07
2018-11-21T02:31:06.368Z,13.43
2018-11-21T02:33:54.713Z,13.87
2018-11-21T02:36:24.308Z,14.00
2018-11-21T02:38:53.943Z,13.20
2018-11-21T02:41:23.521Z,13.80
2018-11-21T02:43:53.149Z,13.97
2018-11-21T02:46:22.732Z,13.83
2018-11-21T02:48:52.527Z,14.13
2018-11-21T02:51:22.689Z,14.27
2018-11-21T02:53:52.352Z,14.93
2018-11-21T02:56:21.932Z,15.00
2018-11-21T02:58:51.547Z,14.53
2018-11-21T03:01:21.129Z,13.80
2018-11-21T03:03:50.738Z,13.93
2018-11-21T03:06:20.336Z,14.70
2018-11-21T03:08:49.969Z,14.80
2018-11-21T03:11:19.643Z,14.40
2018-11-21T03:14:09.103Z,14.57
2018-11-21T03:16:38.626Z,14.80
2018-11-21T03:19:27.251Z,14.17
2018-11-21T03:21:56.859Z,14.17
2018-11-21T03:24:26.513Z,15.30
2018-11-21T03:26:57.136Z,15.20
2018-11-21T03:29:27.905Z,14.70
2018-11-21T03:31:57.477Z,14.93
2018-11-21T03:34:27.163Z,13.83
2018-11-21T03:36:57.056Z,14.40
2018-11-21T03:39:27.768Z,14.57
2018-11-21T03:41:57.487Z,14.57
2018-11-21T03:44:27.182Z,15.37
2018-11-21T03:47:15.750Z,15.37
2018-11-21T03:49:45.526Z,16.07
2018-11-21T03:52:15.519Z,15.43
2018-11-21T03:54:45.098Z,15.03
2018-11-21T03:57:14.723Z,14.53
2018-11-21T03:59:44.315Z,14.63
2018-11-21T04:02:14.307Z,15.37
2018-11-21T04:04:43.904Z,14.93
2018-11-21T04:07:13.622Z,16.87
2018-11-21T04:09:43.201Z,15.13
2018-11-21T04:12:13.475Z,16.10
2018-11-21T04:14:43.107Z,15.27
2018-11-21T04:17:12.689Z,16.20
2018-11-21T04:19:43.279Z,15.33
2018-11-21T04:22:31.766Z,15.20
2018-11-21T04:27:55.621Z,15.73
2018-11-21T04:30:25.228Z,14.50
2018-11-21T04:32:54.810Z,14.80
2018-11-21T04:35:24.450Z,14.97
2018-11-21T04:37:54.015Z,14.77
2018-11-21T04:40:23.641Z,15.20
2018-11-21T04:42:53.289Z,14.93
2018-11-21T04:45:22.876Z,14.80
2018-11-21T04:47:52.502Z,13.97
2018-11-21T04:52:58.126Z,14.07
2018-11-21T04:58:02.699Z,14.30
2018-11-21T05:00:32.333Z,13.93
2018-11-21T05:03:01.919Z,15.70
2018-11-21T05:05:31.504Z,15.47
2018-11-21T05:10:36.157Z,14.03
2018-11-21T05:13:05.767Z,14.37
2018-11-21T05:15:35.351Z,14.50
2018-11-21T05:18:04.991Z,15.33
2018-11-21T05:20:35.606Z,14.90
2018-11-21T05:23:05.609Z,14.33
2018-11-21T05:25:35.191Z,14.17
2018-11-21T05:28:04.912Z,15.90
2018-11-21T05:30:34.879Z,15.17
2018-11-21T05:33:04.520Z,15.20
2018-11-21T05:35:34.235Z,16.90
2018-11-21T05:38:03.902Z,15.40
2018-11-21T05:40:33.847Z,16.53
2018-11-21T05:43:03.522Z,15.57
2018-11-21T05:45:33.252Z,16.77
2018-11-21T05:48:02.963Z,16.97
2018-11-21T05:50:52.206Z,15.63
2018-11-21T05:53:21.845Z,16.83
2018-11-21T05:55:51.464Z,16.00
2018-11-21T05:58:21.053Z,15.00
2018-11-21T06:00:50.740Z,15.97
2018-11-21T06:03:20.375Z,16.50
2018-11-21T06:05:49.967Z,16.17
2018-11-21T06:08:19.582Z,16.33
2018-11-21T06:10:50.116Z,17.70
2018-11-21T06:13:19.849Z,18.13
2018-11-21T06:15:49.452Z,18.27
2018-11-21T06:18:19.085Z,17.43
2018-11-21T06:20:48.670Z,17.93
2018-11-21T06:23:37.213Z,17.50
2018-11-21T06:26:07.171Z,17.47
2018-11-21T06:28:55.436Z,15.77
2018-11-21T06:31:25.140Z,17.67
2018-11-21T06:33:54.822Z,16.30
2018-11-21T06:36:24.507Z,16.43
2018-11-21T06:38:54.020Z,16.20
2018-11-21T06:41:23.640Z,16.20
2018-11-21T06:43:53.260Z,16.10
2018-11-21T06:46:22.913Z,16.33
2018-11-21T06:48:52.544Z,15.27
2018-11-21T06:51:41.099Z,16.17
2018-11-21T06:54:12.990Z,15.50
2018-11-21T06:56:42.704Z,16.17
2018-11-21T06:59:12.274Z,15.87
2018-11-21T07:02:00.532Z,17.80
2018-11-21T07:04:30.125Z,15.47
2018-11-21T07:06:59.737Z,16.73
2018-11-21T07:09:29.709Z,16.13
2018-11-21T07:11:59.497Z,14.70
2018-11-21T07:14:30.181Z,15.57
2018-11-21T07:17:18.836Z,16.53
2018-11-21T07:19:48.420Z,15.57
2018-11-21T07:22:18.044Z,15.60
2018-11-21T07:24:47.617Z,15.33
2018-11-21T07:27:17.327Z,14.50
2018-11-21T07:29:46.907Z,16.20
2018-11-21T07:32:16.522Z,14.17
2018-11-21T07:34:46.127Z,14.60
2018-11-21T07:37:34.371Z,14.30
2018-11-21T07:40:04.502Z,14.97
2018-11-21T07:42:34.543Z,14.40
2018-11-21T07:45:04.147Z,13.83
2018-11-21T07:50:29.831Z,13.47
2018-11-21T07:53:00.714Z,14.10
2018-11-21T07:55:30.628Z,13.50
2018-11-21T07:58:02.716Z,14.50
2018-11-21T08:01:28.849Z,14.80
2018-11-21T08:04:17.180Z,14.03
2018-11-21T08:07:05.407Z,14.60
2018-11-21T08:12:48.200Z,13.80
2018-11-21T08:15:36.461Z,13.30
2018-11-21T08:18:24.756Z,14.70
2018-11-21T08:21:13.030Z,14.50
2018-11-21T08:24:01.248Z,15.40
2018-11-21T08:26:49.584Z,15.30
2018-11-21T08:29:19.513Z,14.80
2018-11-21T08:32:09.431Z,14.80
2018-11-21T08:34:39.006Z,13.87
2018-11-21T08:37:28.946Z,14.83
2018-11-21T08:39:58.533Z,14.70
2018-11-21T08:42:46.789Z,15.20
2018-11-21T08:45:16.357Z,15.70
2018-11-21T08:47:45.969Z,14.13
2018-11-21T08:50:15.540Z,16.07
2018-11-21T08:52:45.579Z,14.90
2018-11-21T08:55:15.149Z,15.77
2018-11-21T08:57:44.772Z,15.43
2018-11-21T09:00:15.353Z,15.97
2018-11-21T09:05:55.882Z,16.27
2018-11-21T09:08:24.761Z,16.60
2018-11-21T09:10:53.127Z,16.30
2018-11-21T09:13:21.474Z,16.10
2018-11-21T09:15:50.276Z,15.30
2018-11-21T09:18:18.632Z,21.20
2018-11-21T09:20:47.479Z,20.20
2018-11-21T09:23:16.311Z,18.03
2018-11-21T09:25:45.133Z,18.03
2018-11-21T09:28:13.496Z,16.80
2018-11-21T09:30:41.894Z,16.77
2018-11-21T09:33:10.601Z,18.50
2018-11-21T09:38:14.024Z,16.83
2018-11-21T09:43:16.503Z,16.77
2018-11-21T09:45:44.933Z,16.83
2018-11-21T09:48:13.363Z,16.47
2018-11-21T09:50:41.725Z,15.50
2018-11-21T09:53:10.181Z,16.87
2018-11-21T09:55:40.538Z,16.17
2018-11-21T09:58:06.941Z,16.50
2018-11-21T10:01:13.998Z,16.43
2018-11-21T10:03:42.385Z,16.73
2018-11-21T10:06:16.447Z,17.57
2018-11-21T10:08:46.546Z,16.50
2018-11-21T10:11:15.379Z,17.77
2018-11-21T10:13:43.731Z,18.37
2018-11-21T10:16:12.497Z,17.77
2018-11-21T10:18:42.659Z,17.33
2018-11-21T10:21:12.630Z,16.80
2018-11-21T10:23:40.991Z,17.93
2018-11-21T10:26:09.568Z,16.77
2018-11-21T10:28:38.278Z,17.07
2018-11-21T10:31:06.627Z,17.33
2018-11-21T10:33:35.375Z,17.33
2018-11-21T10:36:04.401Z,17.00
2018-11-21T10:38:33.159Z,17.43
2018-11-21T10:41:01.508Z,17.83
2018-11-21T10:43:30.349Z,18.53
2018-11-21T10:45:58.698Z,17.30
2018-11-21T10:48:27.050Z,18.10
2018-11-21T10:50:55.487Z,18.77
2018-11-21T10:53:24.142Z,17.60
2018-11-21T10:55:52.503Z,17.17
2018-11-21T10:58:20.894Z,18.00
2018-11-21T11:01:08.319Z,18.33
2018-11-21T11:03:39.262Z,18.83
2018-11-21T11:06:26.737Z,18.20
2018-11-21T11:09:14.574Z,17.23
2018-11-21T11:12:02.063Z,19.03
2018-11-21T11:15:08.902Z,18.57
2018-11-21T11:17:59.525Z,18.00
2018-11-21T11:20:43.799Z,18.53
2018-11-21T11:23:31.252Z,17.50
2018-11-21T11:26:18.868Z,18.53
2018-11-21T11:29:06.319Z,20.30
2018-11-21T11:31:53.730Z,19.00
2018-11-21T11:34:41.184Z,19.47
2018-11-21T11:37:28.597Z,17.97
2018-11-21T11:40:16.054Z,19.00
2018-11-21T11:43:03.807Z,17.43
2018-11-21T11:45:51.255Z,19.20
2018-11-21T11:48:38.674Z,20.17
2018-11-21T11:51:26.123Z,17.63
2018-11-21T11:54:13.540Z,16.97
2018-11-21T11:59:54.310Z,18.80
2018-11-21T12:02:42.333Z,18.80
2018-11-21T12:05:29.741Z,17.30
2018-11-21T12:08:15.638Z,17.50
2018-11-21T12:11:03.134Z,17.43
2018-11-21T12:13:50.579Z,17.43
2018-11-21T12:16:37.997Z,18.70
2018-11-21T12:19:25.472Z,17.57
2018-11-21T12:22:12.885Z,18.17
2018-11-21T12:25:00.575Z,17.30
2018-11-21T12:27:37.951Z,17.83
2018-11-21T12:30:27.563Z,16.93
2018-11-21T12:33:15.043Z,17.97
2018-11-21T12:36:02.459Z,16.87
2018-11-21T12:38:49.926Z,17.27
2018-11-21T12:41:37.338Z,17.20
2018-11-21T12:44:24.826Z,16.00
2018-11-21T12:47:12.244Z,18.03
2018-11-21T12:49:59.696Z,16.33
2018-11-21T12:52:47.106Z,17.30
2018-11-21T12:55:34.857Z,17.50
2018-11-21T12:58:22.270Z,16.63
2018-11-21T13:01:09.723Z,17.23
2018-11-21T13:03:57.133Z,17.60
2018-11-21T13:06:44.651Z,17.33
2018-11-21T13:09:32.162Z,17.50
2018-11-21T13:12:19.802Z,17.97
2018-11-21T13:15:07.331Z,17.63
2018-11-21T13:17:48.872Z,18.00
2018-11-21T13:20:36.289Z,16.73
2018-11-21T13:23:23.802Z,18.23
2018-11-21T13:26:11.339Z,17.77
2018-11-21T13:28:58.822Z,18.37
2018-11-21T13:31:42.412Z,18.80
2018-11-21T13:34:29.882Z,18.20
2018-11-21T13:37:17.293Z,17.20
2018-11-21T13:42:58.964Z,18.97
2018-11-21T13:45:46.795Z,18.80
2018-11-21T13:48:34.215Z,18.03
2018-11-21T13:51:22.043Z,17.30
2018-11-21T13:54:09.466Z,17.77
2018-11-21T13:56:38.043Z,17.17
2018-11-21T13:59:06.404Z,16.80
2018-11-21T14:01:34.820Z,16.50
2018-11-21T14:06:38.081Z,17.00
2018-11-21T14:09:09.700Z,16.77
2018-11-21T14:11:38.111Z,17.27
2018-11-21T14:14:06.727Z,18.00
2018-11-21T14:16:35.201Z,17.97
2018-11-21T14:19:03.564Z,18.83
2018-11-21T14:21:31.981Z,17.43
2018-11-21T14:24:00.842Z,17.93
2018-11-21T14:26:29.616Z,18.07
2018-11-21T14:28:58.594Z,17.10
2018-11-21T14:31:26.964Z,16.90
2018-11-21T14:33:55.338Z,16.97
2018-11-21T14:36:23.747Z,17.67
2018-11-21T14:38:52.644Z,17.73
2018-11-21T14:43:55.932Z,18.20
2018-11-21T14:46:24.356Z,18.13
2018-11-21T14:48:52.732Z,17.30
2018-11-21T14:51:21.734Z,16.57
2018-11-21T14:53:50.099Z,17.87
2018-11-21T14:56:18.527Z,17.70
2018-11-21T14:58:46.895Z,18.67
2018-11-21T15:01:15.604Z,17.53
2018-11-21T15:03:44.104Z,17.93
2018-11-21T15:06:12.465Z,18.10
2018-11-21T15:08:40.989Z,18.03
2018-11-21T15:11:09.905Z,18.53
2018-11-21T15:16:12.339Z,18.83
2018-11-21T15:21:16.592Z,16.77
2018-11-21T15:23:43.722Z,17.33
2018-11-21T15:26:32.085Z,16.30
2018-11-21T15:29:00.884Z,15.77
2018-11-21T15:31:29.250Z,16.43
2018-11-21T15:33:57.612Z,15.90
2018-11-21T15:36:26.054Z,16.30
2018-11-21T15:38:54.418Z,17.33
2018-11-21T15:41:22.888Z,16.60
2018-11-21T15:46:25.421Z,16.10
2018-11-21T15:48:53.781Z,16.57
2018-11-21T15:51:22.199Z,16.50
2018-11-21T15:53:50.564Z,15.17
2018-11-21T15:56:19.091Z,16.67
2018-11-21T15:58:47.868Z,15.90
2018-11-21T16:01:16.230Z,14.57
2018-11-21T16:03:44.652Z,14.73
2018-11-21T16:06:13.125Z,15.67
2018-11-21T16:08:42.024Z,14.33
2018-11-21T16:11:29.847Z,15.43
2018-11-21T16:13:58.298Z,13.73
2018-11-21T16:16:26.655Z,14.67
2018-11-21T16:18:55.015Z,13.43
2018-11-21T16:21:23.506Z,14.33
2018-11-21T16:23:51.945Z,13.20
2018-11-21T16:26:20.539Z,13.77
2018-11-21T16:28:49.275Z,13.33
2018-11-21T16:31:17.774Z,14.40
2018-11-21T16:33:46.139Z,15.20
2018-11-21T16:36:14.499Z,13.93
2018-11-21T16:38:42.901Z,14.90
2018-11-21T16:41:11.757Z,14.20
2018-11-21T16:43:40.177Z,13.37
2018-11-21T16:46:08.528Z,12.77
2018-11-21T16:48:37.021Z,14.03
2018-11-21T16:51:05.921Z,13.70
2018-11-21T16:53:35.175Z,13.27
2018-11-21T16:56:02.744Z,13.10
2018-11-21T16:58:31.222Z,13.73
2018-11-21T17:00:59.677Z,13.93
2018-11-21T17:03:28.167Z,14.13
2018-11-21T17:05:56.630Z,14.40
2018-11-21T17:08:25.007Z,13.43
2018-11-21T17:10:53.799Z,12.33
2018-11-21T17:13:22.909Z,14.20
2018-11-21T17:15:51.506Z,13.80
2018-11-21T17:18:19.879Z,14.73
2018-11-21T17:20:48.630Z,13.90
2018-11-21T17:23:17.008Z,13.33
2018-11-21T17:25:45.497Z,12.83
2018-11-21T17:28:13.857Z,14.30
2018-11-21T17:30:42.313Z,14.63
2018-11-21T17:33:10.689Z,11.87
2018-11-21T17:35:39.067Z,12.93
2018-11-21T17:38:07.630Z,12.70
2018-11-21T17:40:38.347Z,12.87
2018-11-21T17:43:06.961Z,13.10
2018-11-21T17:45:35.324Z,11.97
2018-11-21T17:48:03.958Z,13.83
2018-11-21T17:50:32.411Z,12.30
2018-11-21T17:53:02.253Z,12.97
2018-11-21T17:55:31.612Z,13.80
2018-11-21T17:58:00.187Z,12.90
2018-11-21T18:00:29.984Z,12.63
2018-11-21T18:02:58.360Z,12.90
2018-11-21T18:05:45.873Z,13.10
2018-11-21T18:08:14.368Z,13.77
2018-11-21T18:10:42.970Z,12.83
2018-11-21T18:13:11.374Z,13.80
2018-11-21T18:15:39.979Z,13.30
2018-11-21T18:18:08.971Z,13.60
2018-11-21T18:20:37.333Z,14.57
2018-11-21T18:23:05.759Z,13.37
2018-11-21T18:25:53.179Z,12.13
2018-11-21T18:28:21.872Z,13.50
2018-11-21T18:30:50.343Z,12.57
2018-11-21T18:33:18.725Z,13.43
2018-11-21T18:35:47.187Z,13.37
2018-11-21T18:38:15.593Z,13.27
2018-11-21T18:40:44.813Z,13.83
2018-11-21T18:43:13.217Z,13.30
2018-11-21T18:45:43.885Z,12.37
2018-11-21T18:48:12.575Z,13.77
2018-11-21T18:50:41.258Z,12.93
2018-11-21T18:53:10.382Z,13.13
2018-11-21T18:55:59.471Z,13.07
2018-11-21T18:58:34.555Z,13.40
2018-11-21T19:01:02.946Z,12.93
2018-11-21T19:06:05.723Z,13.10
2018-11-21T19:08:35.126Z,12.33
2018-11-21T19:11:03.483Z,12.67
2018-11-21T19:16:07.386Z,12.67
2018-11-21T19:18:36.047Z,12.13
2018-11-21T19:21:04.754Z,11.50
2018-11-21T19:23:33.507Z,13.27
2018-11-21T19:26:02.085Z,13.60
2018-11-21T19:28:30.499Z,12.40
2018-11-21T19:33:32.104Z,12.67
2018-11-21T19:36:00.864Z,11.03
2018-11-21T19:38:29.227Z,13.37
2018-11-21T19:40:57.740Z,12.57
2018-11-21T19:46:00.259Z,11.83
2018-11-21T19:48:28.877Z,11.10
2018-11-21T19:50:57.314Z,11.57
2018-11-21T19:53:25.671Z,11.47
2018-11-21T19:55:55.431Z,12.07
2018-11-21T19:58:24.666Z,11.20
2018-11-21T20:00:53.050Z,11.10
2018-11-21T20:05:56.454Z,11.13
2018-11-21T20:08:24.872Z,10.97
2018-11-21T20:10:53.321Z,10.30
2018-11-21T20:13:21.695Z,10.83
2018-11-21T20:18:23.832Z,10.53
2018-11-21T20:20:52.499Z,11.00
2018-11-21T20:23:20.936Z,11.13
2018-11-21T20:25:49.359Z,10.73
2018-11-21T20:28:17.725Z,11.67
2018-11-21T20:30:46.663Z,10.77
2018-11-21T20:33:15.037Z,10.90
2018-11-21T20:35:43.426Z,11.77
2018-11-21T20:38:11.833Z,10.70
2018-11-21T20:40:40.708Z,10.67
2018-11-21T20:43:09.135Z,10.17
2018-11-21T20:45:37.497Z,10.80
2018-11-21T20:48:06.029Z,10.67
2018-11-21T20:50:34.884Z,9.87
2018-11-21T20:53:03.252Z,10.63
2018-11-21T20:55:32.507Z,10.03
2018-11-21T20:58:00.906Z,9.67
2018-11-21T21:05:32.992Z,9.87
2018-11-21T21:10:35.276Z,10.83
2018-11-21T21:13:03.604Z,9.77
2018-11-21T21:15:31.969Z,10.13
2018-11-21T21:18:01.662Z,9.87
2018-11-21T21:20:29.053Z,9.43
2018-11-21T21:22:58.638Z,9.70
2018-11-21T21:25:28.484Z,9.33
2018-11-21T21:27:56.919Z,9.30
2018-11-21T21:30:27.108Z,10.13
2018-11-21T21:32:55.557Z,9.93
2018-11-21T21:35:25.034Z,9.27
2018-11-21T21:37:53.969Z,10.03
2018-11-21T21:40:22.880Z,10.47
2018-11-21T21:42:51.205Z,9.47
2018-11-21T21:47:55.536Z,9.40
2018-11-21T21:52:59.972Z,9.17
2018-11-21T21:55:29.508Z,9.20
2018-11-21T21:57:58.984Z,8.93
2018-11-21T22:00:28.373Z,9.10
2018-11-21T22:02:58.141Z,9.30
2018-11-21T22:05:26.645Z,8.50
2018-11-21T22:10:29.612Z,8.83
2018-11-21T22:12:58.179Z,9.07
2018-11-21T22:15:27.966Z,9.97
2018-11-21T22:17:57.882Z,11.27
2018-11-21T22:20:26.358Z,9.97
2018-11-21T22:22:55.051Z,9.10
2018-11-21T22:25:23.971Z,8.90
2018-11-21T22:27:52.330Z,8.97
2018-11-21T22:30:21.221Z,8.23
2018-11-21T22:32:50.713Z,8.93
2018-11-21T22:35:24.936Z,8.73
2018-11-21T22:37:51.365Z,8.10
2018-11-21T22:42:51.470Z,8.07
2018-11-21T22:45:21.213Z,9.50
2018-11-21T22:47:49.560Z,8.70
2018-11-21T22:50:21.670Z,9.03
2018-11-21T22:55:24.794Z,9.20
2018-11-21T22:57:53.985Z,10.07
2018-11-21T23:00:42.092Z,9.87
2018-11-21T23:03:11.242Z,11.23
2018-11-21T23:05:39.921Z,9.30
2018-11-21T23:08:27.721Z,10.70
2018-11-21T23:10:56.127Z,10.87
2018-11-21T23:13:24.541Z,10.07
2018-11-21T23:15:53.030Z,11.23
2018-11-21T23:18:21.659Z,11.37
2018-11-21T23:20:50.011Z,11.57
2018-11-21T23:23:18.422Z,10.70
2018-11-21T23:25:47.223Z,11.30
2018-11-21T23:28:15.646Z,11.47
2018-11-21T23:30:44.134Z,11.53
2018-11-21T23:33:12.931Z,10.83
2018-11-21T23:38:15.699Z,12.50
2018-11-21T23:40:44.123Z,11.30
2018-11-21T23:43:12.490Z,10.47
2018-11-21T23:45:41.762Z,11.27
2018-11-21T23:48:10.434Z,11.10
2018-11-21T23:50:39.169Z,11.10
2018-11-21T23:53:07.574Z,10.47
2018-11-21T23:55:35.939Z,10.43
2018-11-21T23:58:04.333Z,10.70
